Аэропорт: Якутск. Якутск

ICAO: UEEE

METAR:
2020-10-24 05:30:00
UEEE 240530Z 00000MPS CAVOK M04/M10 Q1021 R23L/450157 NOSIG RMK QFE757
METAR:
2020-10-24 05:00:00
TAF UEEE 240500Z 2406/2512 32003G08MPS 9999 SCT030CB BKN070 TEMPO 2406/2412 3200 -SHSN SCT010 BKN020CB OVC070